AirNav   Everest Fuels
 
 808 users online  

82FD Lockheed Martin Heliport
Orlando, Florida, USA

GOING TO ORLANDO?


FAA INFORMATION EFFECTIVE 07 NOVEMBER 2019

Location

FAA Identifier: 82FD
Lat/Long: 28-26-48.4900N 081-27-03.6900W
28-26.808167N 081-27.061500W
28.4468028,-81.4510250
(estimated)
Elevation: 98 ft. / 30 m (estimated)
From city: 7 miles SW of ORLANDO, FL
Time zone: UTC -5 (UTC -4 during Daylight Saving Time)
Zip code: 32819

Heliport Operations

Heliport use: Private use. Permission required prior to landing
Activation date: 12/2015
Control tower: no
ARTCC: JACKSONVILLE CENTER
FSS: SAINT PETERSBURG FLIGHT SERVICE STATION
Attendance: IREG
Wind indicator: yes
Segmented circle: no

Heliport Communications

WX ASOS at MCO (8 nm E): PHONE 407-855-5235
WX ASOS at ORL (9 nm NE): PHONE 407-658-6753
WX AWOS-3PT at ISM (9 nm S): 128.775 (407-847-0533)

Nearby radio navigation aids

VOR radial/distance  VOR name  Freq  Var
ORLr227/8.4ORLANDO VORTAC112.2000E

Heliport Services

Runway Information

Helipad H1

Dimensions: 34 x 34 ft. / 10 x 10 m
Surface: asphalt
Runway edge lights: medium intensity
Traffic pattern: leftleft

Heliport Ownership and Management from official FAA records

Ownership: Privately-owned
Owner: LOCKHEED MARTIN CORPORATION
5600 SAND LAKE ROAD
ORLANDO, FL 32819-8907
Phone 407-356-5842
Manager: RICHARD FIELDS
5600 SAND LAKE ROAD, MAIL DROP 88
ORLANDO, FL 32819-8907
Phone 407-356-5842

Additional Remarks

FOR CD CTC ORLANDO APCH AT 407-852-7553.

Instrument Procedures

There are no published instrument procedures at 82FD.

Some nearby airports with instrument procedures:

KMCO - Orlando International Airport (8 nm E)
KORL - Executive Airport (9 nm NE)
KISM - Kissimmee Gateway Airport (9 nm S)
X04 - Orlando Apopka Airport (17 nm NW)
KSFB - Orlando Sanford International Airport (23 nm NE)
 
Loc | Ops | Rwys | IFR | FBO | Links
Com | Nav | Svcs | Stats | Notes
Aerial photo
No photo
 
Airport distance calculator
Flying to Lockheed Martin Heliport? Find the distance to fly.

From to 82FD

Sunrise and sunset
Times for 15-Nov-2019
 Local
(UTC-5)
 Zulu
(UTC)
Morning civil twilight06:2411:24
Sunrise06:4911:49
Sunset17:3222:32
Evening civil twilight17:5722:57

Current date and time
Zulu (UTC)  16-Nov-2019 01:30:36
Local (UTC-5)  15-Nov-2019 20:30:36
 
METAR
KMCO 
6nm E 
160111Z 28013KT 10SM SCT009 OVC017 17/14 A2993 RMK AO2 T01720139
KORL 
9nm NE 
160053Z 28011KT 4SM BR OVC005 17/15 A2993 RMK AO2 SLP139 T01670150
KISM 
10nm S 
160105Z 31010KT 10SM SCT022 SCT120 17/14 A2994 RMK AO2 PNO $
TAF
KMCO 
6nm E 
152052Z 1521/1624 31009KT P6SM FEW008 BKN015 OVC020 FM160000 31008KT P6SM BKN008 OVC015 FM161400 32012KT P6SM SCT008 BKN015 FM161800 33013KT P6SM SCT020 BKN035
KISM 
10nm S 
151750Z 1518/1618 31005KT P6SM VCSH SCT008 BKN020 OVC040 FM152000 31007KT P6SM SCT008 BKN015 OVC035 FM160000 31008KT P6SM BKN008 OVC015 FM161400 32012KT P6SM SCT008 BKN015
NOTAMs
Click for the latest NOTAMs
NOTAMs are issued by the DoD/FAA and will open in a separate window not controlled by AirNav.

 

 
 

Would you like to see your business listed on this page?

 If your business provides an interesting product or service to pilots, flight crews, aircraft, or users of the Lockheed Martin Heliport, you should consider listing it here.  To start the listing process, click on the button below
 
Add a business
 

Other Pages about Lockheed Martin Heliport

Update a link
 
Copyright © AirNav, LLC. All rights reserved. Privacy Policy  Contact